sensor_id;sensor_type;location;lat;lon;timestamp;P1;durP1;ratioP1;P2;durP2;ratioP2
64353;SDS011;50681;53.334;-6.536;2023-08-17T00:02:10;7.97;;;2.92;;
64353;SDS011;50681;53.334;-6.536;2023-08-17T00:04:36;8.05;;;3.00;;
64353;SDS011;50681;53.334;-6.536;2023-08-17T00:07:03;8.30;;;2.90;;
64353;SDS011;50681;53.334;-6.536;2023-08-17T00:09:28;7.95;;;2.75;;
64353;SDS011;50681;53.334;-6.536;2023-08-17T00:11:53;7.43;;;3.20;;
64353;SDS011;50681;53.334;-6.536;2023-08-17T00:14:19;7.20;;;2.70;;
64353;SDS011;50681;53.334;-6.536;2023-08-17T00:16:45;4.35;;;2.40;;
64353;SDS011;50681;53.334;-6.536;2023-08-17T00:19:10;4.67;;;2.60;;
64353;SDS011;50681;53.334;-6.536;2023-08-17T00:21:36;7.50;;;2.63;;
64353;SDS011;50681;53.334;-6.536;2023-08-17T00:24:17;11.48;;;3.00;;
64353;SDS011;50681;53.334;-6.536;2023-08-17T00:26:43;8.75;;;2.40;;
64353;SDS011;50681;53.334;-6.536;2023-08-17T00:29:08;9.03;;;2.47;;
64353;SDS011;50681;53.334;-6.536;2023-08-17T00:31:33;7.07;;;2.40;;
64353;SDS011;50681;53.334;-6.536;2023-08-17T00:33:59;7.43;;;2.40;;
64353;SDS011;50681;53.334;-6.536;2023-08-17T00:36:24;6.63;;;2.27;;
64353;SDS011;50681;53.334;-6.536;2023-08-17T00:38:50;8.50;;;2.25;;
64353;SDS011;50681;53.334;-6.536;2023-08-17T00:41:15;17.10;;;2.37;;
64353;SDS011;50681;53.334;-6.536;2023-08-17T00:43:41;9.70;;;2.63;;
64353;SDS011;50681;53.334;-6.536;2023-08-17T00:46:06;7.55;;;2.45;;
64353;SDS011;50681;53.334;-6.536;2023-08-17T00:48:33;5.78;;;2.17;;
64353;SDS011;50681;53.334;-6.536;2023-08-17T00:50:59;5.93;;;2.13;;
64353;SDS011;50681;53.334;-6.536;2023-08-17T00:53:26;6.60;;;2.50;;
64353;SDS011;50681;53.334;-6.536;2023-08-17T00:55:54;5.18;;;2.30;;
64353;SDS011;50681;53.334;-6.536;2023-08-17T00:58:21;8.45;;;2.03;;
64353;SDS011;50681;53.334;-6.536;2023-08-17T01:00:46;9.38;;;2.90;;
64353;SDS011;50681;53.334;-6.536;2023-08-17T01:03:12;6.50;;;2.77;;
64353;SDS011;50681;53.334;-6.536;2023-08-17T01:05:38;6.72;;;2.33;;
64353;SDS011;50681;53.334;-6.536;2023-08-17T01:08:04;6.07;;;2.30;;
64353;SDS011;50681;53.334;-6.536;2023-08-17T01:10:38;8.60;;;2.33;;
64353;SDS011;50681;53.334;-6.536;2023-08-17T01:13:21;9.00;;;2.37;;
64353;SDS011;50681;53.334;-6.536;2023-08-17T01:15:56;11.20;;;2.33;;
64353;SDS011;50681;53.334;-6.536;2023-08-17T01:18:28;8.05;;;2.50;;
64353;SDS011;50681;53.334;-6.536;2023-08-17T01:20:57;5.00;;;2.03;;
64353;SDS011;50681;53.334;-6.536;2023-08-17T01:23:25;4.50;;;2.00;;
64353;SDS011;50681;53.334;-6.536;2023-08-17T01:25:50;6.33;;;2.20;;
64353;SDS011;50681;53.334;-6.536;2023-08-17T01:28:16;8.77;;;2.33;;
64353;SDS011;50681;53.334;-6.536;2023-08-17T01:33:48;4.57;;;2.00;;
64353;SDS011;50681;53.334;-6.536;2023-08-17T01:36:25;7.43;;;2.13;;
64353;SDS011;50681;53.334;-6.536;2023-08-17T01:38:52;4.35;;;2.08;;
64353;SDS011;50681;53.334;-6.536;2023-08-17T01:41:20;6.85;;;2.38;;
64353;SDS011;50681;53.334;-6.536;2023-08-17T01:43:47;6.70;;;2.85;;
64353;SDS011;50681;53.334;-6.536;2023-08-17T01:46:15;8.25;;;2.72;;
64353;SDS011;50681;53.334;-6.536;2023-08-17T01:48:45;5.55;;;2.20;;
64353;SDS011;50681;53.334;-6.536;2023-08-17T01:51:16;7.90;;;2.58;;
64353;SDS011;50681;53.334;-6.536;2023-08-17T01:53:45;6.72;;;2.45;;
64353;SDS011;50681;53.334;-6.536;2023-08-17T01:56:11;4.85;;;2.15;;
64353;SDS011;50681;53.334;-6.536;2023-08-17T01:58:36;5.97;;;2.40;;
64353;SDS011;50681;53.334;-6.536;2023-08-17T02:01:01;9.70;;;2.63;;
64353;SDS011;50681;53.334;-6.536;2023-08-17T02:03:31;6.53;;;2.33;;
64353;SDS011;50681;53.334;-6.536;2023-08-17T02:05:56;7.70;;;2.50;;
64353;SDS011;50681;53.334;-6.536;2023-08-17T02:08:22;4.47;;;2.30;;
64353;SDS011;50681;53.334;-6.536;2023-08-17T02:10:48;6.37;;;2.80;;
64353;SDS011;50681;53.334;-6.536;2023-08-17T02:13:14;7.73;;;3.10;;
64353;SDS011;50681;53.334;-6.536;2023-08-17T02:15:39;7.78;;;3.00;;
64353;SDS011;50681;53.334;-6.536;2023-08-17T02:18:05;5.93;;;2.88;;
64353;SDS011;50681;53.334;-6.536;2023-08-17T02:20:31;6.53;;;3.27;;
64353;SDS011;50681;53.334;-6.536;2023-08-17T02:22:56;7.25;;;3.67;;
64353;SDS011;50681;53.334;-6.536;2023-08-17T02:25:22;6.20;;;3.30;;
64353;SDS011;50681;53.334;-6.536;2023-08-17T02:27:47;8.80;;;3.40;;
64353;SDS011;50681;53.334;-6.536;2023-08-17T02:30:13;8.20;;;3.43;;
64353;SDS011;50681;53.334;-6.536;2023-08-17T02:32:39;10.20;;;3.70;;
64353;SDS011;50681;53.334;-6.536;2023-08-17T02:35:04;6.87;;;3.33;;
64353;SDS011;50681;53.334;-6.536;2023-08-17T02:37:30;9.10;;;3.58;;
64353;SDS011;50681;53.334;-6.536;2023-08-17T02:39:56;12.40;;;3.93;;
64353;SDS011;50681;53.334;-6.536;2023-08-17T02:42:22;6.72;;;4.10;;
64353;SDS011;50681;53.334;-6.536;2023-08-17T02:44:48;9.80;;;4.73;;
64353;SDS011;50681;53.334;-6.536;2023-08-17T02:47:13;9.57;;;4.47;;
64353;SDS011;50681;53.334;-6.536;2023-08-17T02:49:39;12.10;;;5.20;;
64353;SDS011;50681;53.334;-6.536;2023-08-17T02:52:04;14.10;;;5.40;;
64353;SDS011;50681;53.334;-6.536;2023-08-17T02:54:30;8.52;;;5.28;;
64353;SDS011;50681;53.334;-6.536;2023-08-17T02:56:56;12.13;;;5.70;;
64353;SDS011;50681;53.334;-6.536;2023-08-17T02:59:22;10.75;;;5.10;;
64353;SDS011;50681;53.334;-6.536;2023-08-17T03:01:47;10.00;;;5.33;;
64353;SDS011;50681;53.334;-6.536;2023-08-17T03:04:13;12.52;;;5.30;;
64353;SDS011;50681;53.334;-6.536;2023-08-17T03:06:39;8.60;;;5.00;;
64353;SDS011;50681;53.334;-6.536;2023-08-17T03:09:04;10.80;;;4.80;;
64353;SDS011;50681;53.334;-6.536;2023-08-17T03:11:30;10.93;;;5.20;;
64353;SDS011;50681;53.334;-6.536;2023-08-17T03:13:55;11.07;;;4.80;;
64353;SDS011;50681;53.334;-6.536;2023-08-17T03:16:25;9.52;;;4.57;;
64353;SDS011;50681;53.334;-6.536;2023-08-17T03:18:51;10.85;;;4.90;;
64353;SDS011;50681;53.334;-6.536;2023-08-17T03:21:17;11.03;;;4.30;;
64353;SDS011;50681;53.334;-6.536;2023-08-17T03:23:43;9.10;;;4.03;;
64353;SDS011;50681;53.334;-6.536;2023-08-17T03:26:09;10.73;;;3.97;;
64353;SDS011;50681;53.334;-6.536;2023-08-17T03:28:35;7.50;;;4.17;;
64353;SDS011;50681;53.334;-6.536;2023-08-17T03:31:01;11.07;;;4.00;;
64353;SDS011;50681;53.334;-6.536;2023-08-17T03:33:27;11.55;;;3.72;;
64353;SDS011;50681;53.334;-6.536;2023-08-17T03:35:53;7.97;;;3.30;;
64353;SDS011;50681;53.334;-6.536;2023-08-17T03:38:18;14.60;;;3.37;;
64353;SDS011;50681;53.334;-6.536;2023-08-17T03:40:44;10.07;;;3.67;;
64353;SDS011;50681;53.334;-6.536;2023-08-17T03:43:09;10.70;;;3.50;;
64353;SDS011;50681;53.334;-6.536;2023-08-17T03:45:36;6.30;;;3.47;;
64353;SDS011;50681;53.334;-6.536;2023-08-17T03:48:02;9.10;;;3.30;;
64353;SDS011;50681;53.334;-6.536;2023-08-17T03:50:27;9.23;;;3.00;;
64353;SDS011;50681;53.334;-6.536;2023-08-17T03:52:53;8.07;;;3.30;;
64353;SDS011;50681;53.334;-6.536;2023-08-17T03:55:19;19.70;;;3.83;;
64353;SDS011;50681;53.334;-6.536;2023-08-17T03:57:44;18.17;;;4.03;;
64353;SDS011;50681;53.334;-6.536;2023-08-17T04:00:13;11.07;;;4.27;;
64353;SDS011;50681;53.334;-6.536;2023-08-17T04:02:39;10.55;;;3.90;;
64353;SDS011;50681;53.334;-6.536;2023-08-17T04:05:04;10.33;;;4.00;;
64353;SDS011;50681;53.334;-6.536;2023-08-17T04:07:30;8.00;;;3.75;;
64353;SDS011;50681;53.334;-6.536;2023-08-17T04:09:56;10.37;;;4.70;;
64353;SDS011;50681;53.334;-6.536;2023-08-17T04:12:21;9.63;;;4.10;;
64353;SDS011;50681;53.334;-6.536;2023-08-17T04:14:47;13.77;;;4.80;;
64353;SDS011;50681;53.334;-6.536;2023-08-17T04:17:15;10.43;;;4.65;;
64353;SDS011;50681;53.334;-6.536;2023-08-17T04:19:40;10.93;;;4.90;;
64353;SDS011;50681;53.334;-6.536;2023-08-17T04:22:05;11.13;;;5.23;;
64353;SDS011;50681;53.334;-6.536;2023-08-17T04:24:31;11.83;;;6.20;;
64353;SDS011;50681;53.334;-6.536;2023-08-17T04:26:56;12.50;;;5.73;;
64353;SDS011;50681;53.334;-6.536;2023-08-17T04:29:22;14.10;;;6.10;;
64353;SDS011;50681;53.334;-6.536;2023-08-17T04:31:47;8.80;;;5.97;;
64353;SDS011;50681;53.334;-6.536;2023-08-17T04:34:13;15.70;;;6.85;;
64353;SDS011;50681;53.334;-6.536;2023-08-17T04:36:39;11.33;;;6.90;;
64353;SDS011;50681;53.334;-6.536;2023-08-17T04:39:04;11.53;;;7.53;;
64353;SDS011;50681;53.334;-6.536;2023-08-17T04:41:30;17.37;;;7.87;;
64353;SDS011;50681;53.334;-6.536;2023-08-17T04:43:56;16.33;;;8.00;;
64353;SDS011;50681;53.334;-6.536;2023-08-17T04:46:21;20.03;;;8.67;;
64353;SDS011;50681;53.334;-6.536;2023-08-17T04:48:47;19.17;;;7.40;;
64353;SDS011;50681;53.334;-6.536;2023-08-17T04:51:12;19.80;;;7.93;;
64353;SDS011;50681;53.334;-6.536;2023-08-17T04:53:39;18.33;;;7.53;;
64353;SDS011;50681;53.334;-6.536;2023-08-17T04:56:05;16.87;;;8.90;;
64353;SDS011;50681;53.334;-6.536;2023-08-17T04:58:31;24.77;;;9.40;;
64353;SDS011;50681;53.334;-6.536;2023-08-17T05:00:56;22.38;;;9.77;;
64353;SDS011;50681;53.334;-6.536;2023-08-17T05:03:24;22.05;;;10.80;;
64353;SDS011;50681;53.334;-6.536;2023-08-17T05:05:53;22.67;;;11.10;;
64353;SDS011;50681;53.334;-6.536;2023-08-17T05:08:19;21.63;;;10.95;;
64353;SDS011;50681;53.334;-6.536;2023-08-17T05:10:46;30.00;;;10.55;;
64353;SDS011;50681;53.334;-6.536;2023-08-17T05:13:12;25.20;;;10.60;;
64353;SDS011;50681;53.334;-6.536;2023-08-17T05:15:37;16.40;;;9.87;;
64353;SDS011;50681;53.334;-6.536;2023-08-17T05:18:03;26.33;;;11.40;;
64353;SDS011;50681;53.334;-6.536;2023-08-17T05:20:29;22.90;;;9.95;;
64353;SDS011;50681;53.334;-6.536;2023-08-17T05:22:54;30.63;;;11.00;;
64353;SDS011;50681;53.334;-6.536;2023-08-17T05:25:19;17.47;;;9.43;;
64353;SDS011;50681;53.334;-6.536;2023-08-17T05:27:45;16.67;;;9.47;;
64353;SDS011;50681;53.334;-6.536;2023-08-17T05:30:11;25.17;;;9.15;;
64353;SDS011;50681;53.334;-6.536;2023-08-17T05:32:37;16.83;;;9.47;;
64353;SDS011;50681;53.334;-6.536;2023-08-17T05:35:02;18.70;;;8.73;;
64353;SDS011;50681;53.334;-6.536;2023-08-17T05:37:28;19.92;;;8.10;;
64353;SDS011;50681;53.334;-6.536;2023-08-17T05:39:53;14.50;;;8.70;;
64353;SDS011;50681;53.334;-6.536;2023-08-17T05:44:46;16.00;;;6.82;;
64353;SDS011;50681;53.334;-6.536;2023-08-17T05:47:12;13.17;;;7.10;;
64353;SDS011;50681;53.334;-6.536;2023-08-17T05:49:40;19.17;;;7.47;;
64353;SDS011;50681;53.334;-6.536;2023-08-17T05:52:07;17.00;;;6.93;;
64353;SDS011;50681;53.334;-6.536;2023-08-17T05:54:32;17.60;;;6.57;;
64353;SDS011;50681;53.334;-6.536;2023-08-17T05:56:58;19.33;;;6.53;;
64353;SDS011;50681;53.334;-6.536;2023-08-17T05:59:23;13.10;;;5.67;;
64353;SDS011;50681;53.334;-6.536;2023-08-17T06:01:49;11.10;;;5.17;;
64353;SDS011;50681;53.334;-6.536;2023-08-17T06:04:15;14.38;;;5.55;;
64353;SDS011;50681;53.334;-6.536;2023-08-17T06:06:41;11.83;;;4.93;;
64353;SDS011;50681;53.334;-6.536;2023-08-17T06:09:06;9.13;;;4.70;;
64353;SDS011;50681;53.334;-6.536;2023-08-17T06:11:33;15.90;;;5.28;;
64353;SDS011;50681;53.334;-6.536;2023-08-17T06:13:59;17.50;;;5.10;;
64353;SDS011;50681;53.334;-6.536;2023-08-17T06:16:24;19.93;;;4.57;;
64353;SDS011;50681;53.334;-6.536;2023-08-17T06:18:50;7.60;;;4.00;;
64353;SDS011;50681;53.334;-6.536;2023-08-17T06:21:15;18.23;;;4.23;;
64353;SDS011;50681;53.334;-6.536;2023-08-17T06:23:41;8.73;;;3.70;;
64353;SDS011;50681;53.334;-6.536;2023-08-17T06:26:06;10.03;;;3.20;;
64353;SDS011;50681;53.334;-6.536;2023-08-17T06:28:33;11.88;;;3.30;;
64353;SDS011;50681;53.334;-6.536;2023-08-17T06:31:00;8.25;;;3.00;;
64353;SDS011;50681;53.334;-6.536;2023-08-17T06:33:25;11.60;;;2.65;;
64353;SDS011;50681;53.334;-6.536;2023-08-17T06:35:51;11.23;;;2.90;;
64353;SDS011;50681;53.334;-6.536;2023-08-17T06:38:16;8.27;;;2.45;;
64353;SDS011;50681;53.334;-6.536;2023-08-17T06:40:42;14.52;;;2.60;;
64353;SDS011;50681;53.334;-6.536;2023-08-17T06:43:07;11.30;;;2.27;;
64353;SDS011;50681;53.334;-6.536;2023-08-17T06:45:33;7.97;;;2.60;;
64353;SDS011;50681;53.334;-6.536;2023-08-17T06:47:59;9.50;;;2.40;;
64353;SDS011;50681;53.334;-6.536;2023-08-17T06:50:25;5.93;;;2.23;;
64353;SDS011;50681;53.334;-6.536;2023-08-17T06:55:17;12.23;;;2.45;;
64353;SDS011;50681;53.334;-6.536;2023-08-17T06:57:42;13.38;;;2.40;;
64353;SDS011;50681;53.334;-6.536;2023-08-17T07:00:08;5.65;;;1.90;;
64353;SDS011;50681;53.334;-6.536;2023-08-17T07:02:36;15.43;;;2.65;;
64353;SDS011;50681;53.334;-6.536;2023-08-17T07:05:02;9.35;;;2.22;;
64353;SDS011;50681;53.334;-6.536;2023-08-17T07:07:29;12.68;;;2.45;;
64353;SDS011;50681;53.334;-6.536;2023-08-17T07:09:57;7.78;;;2.20;;
64353;SDS011;50681;53.334;-6.536;2023-08-17T07:12:25;12.98;;;2.83;;
64353;SDS011;50681;53.334;-6.536;2023-08-17T07:14:50;12.77;;;2.50;;
64353;SDS011;50681;53.334;-6.536;2023-08-17T07:17:16;16.50;;;2.63;;
64353;SDS011;50681;53.334;-6.536;2023-08-17T07:19:42;11.00;;;2.33;;
64353;SDS011;50681;53.334;-6.536;2023-08-17T07:24:33;7.60;;;2.00;;
64353;SDS011;50681;53.334;-6.536;2023-08-17T07:26:59;9.73;;;2.27;;
64353;SDS011;50681;53.334;-6.536;2023-08-17T07:29:24;6.85;;;1.90;;
64353;SDS011;50681;53.334;-6.536;2023-08-17T07:31:50;8.80;;;1.90;;
64353;SDS011;50681;53.334;-6.536;2023-08-17T07:34:16;9.73;;;2.03;;
64353;SDS011;50681;53.334;-6.536;2023-08-17T07:36:42;8.90;;;1.70;;
64353;SDS011;50681;53.334;-6.536;2023-08-17T07:39:08;8.87;;;2.00;;
64353;SDS011;50681;53.334;-6.536;2023-08-17T07:41:35;7.25;;;2.10;;
64353;SDS011;50681;53.334;-6.536;2023-08-17T07:44:02;10.50;;;1.50;;
64353;SDS011;50681;53.334;-6.536;2023-08-17T07:46:28;3.97;;;1.38;;
64353;SDS011;50681;53.334;-6.536;2023-08-17T07:48:53;13.40;;;2.30;;
64353;SDS011;50681;53.334;-6.536;2023-08-17T07:51:19;10.70;;;2.90;;
64353;SDS011;50681;53.334;-6.536;2023-08-17T07:53:44;5.43;;;1.50;;
64353;SDS011;50681;53.334;-6.536;2023-08-17T07:56:10;14.02;;;1.88;;
64353;SDS011;50681;53.334;-6.536;2023-08-17T07:58:36;12.47;;;2.23;;
64353;SDS011;50681;53.334;-6.536;2023-08-17T08:01:01;13.83;;;2.10;;
64353;SDS011;50681;53.334;-6.536;2023-08-17T08:03:27;11.13;;;2.03;;
64353;SDS011;50681;53.334;-6.536;2023-08-17T08:05:53;9.70;;;2.17;;
64353;SDS011;50681;53.334;-6.536;2023-08-17T08:08:20;12.60;;;6.30;;
64353;SDS011;50681;53.334;-6.536;2023-08-17T08:10:45;22.42;;;6.65;;
64353;SDS011;50681;53.334;-6.536;2023-08-17T08:13:11;15.10;;;3.83;;
64353;SDS011;50681;53.334;-6.536;2023-08-17T08:15:37;16.13;;;2.90;;
64353;SDS011;50681;53.334;-6.536;2023-08-17T08:20:29;9.13;;;2.25;;
64353;SDS011;50681;53.334;-6.536;2023-08-17T08:22:55;4.10;;;1.60;;
64353;SDS011;50681;53.334;-6.536;2023-08-17T08:25:20;9.77;;;1.97;;
64353;SDS011;50681;53.334;-6.536;2023-08-17T08:27:46;9.83;;;2.40;;
64353;SDS011;50681;53.334;-6.536;2023-08-17T08:30:27;6.53;;;1.88;;
64353;SDS011;50681;53.334;-6.536;2023-08-17T08:32:52;14.60;;;1.67;;
64353;SDS011;50681;53.334;-6.536;2023-08-17T08:35:20;6.22;;;1.80;;
64353;SDS011;50681;53.334;-6.536;2023-08-17T08:37:47;7.00;;;1.75;;
64353;SDS011;50681;53.334;-6.536;2023-08-17T08:40:12;5.95;;;1.52;;
64353;SDS011;50681;53.334;-6.536;2023-08-17T08:42:46;12.48;;;2.88;;
64353;SDS011;50681;53.334;-6.536;2023-08-17T08:45:12;7.88;;;3.50;;
64353;SDS011;50681;53.334;-6.536;2023-08-17T08:47:37;10.33;;;3.57;;
64353;SDS011;50681;53.334;-6.536;2023-08-17T08:50:05;9.98;;;2.75;;
64353;SDS011;50681;53.334;-6.536;2023-08-17T08:52:34;9.30;;;2.25;;
64353;SDS011;50681;53.334;-6.536;2023-08-17T08:55:23;11.07;;;2.00;;
64353;SDS011;50681;53.334;-6.536;2023-08-17T08:57:48;12.48;;;2.03;;
64353;SDS011;50681;53.334;-6.536;2023-08-17T09:00:15;9.27;;;3.10;;
64353;SDS011;50681;53.334;-6.536;2023-08-17T09:02:42;10.27;;;4.03;;
64353;SDS011;50681;53.334;-6.536;2023-08-17T09:07:35;8.27;;;3.25;;
64353;SDS011;50681;53.334;-6.536;2023-08-17T09:10:02;13.88;;;3.40;;
64353;SDS011;50681;53.334;-6.536;2023-08-17T09:12:30;9.15;;;4.00;;
64353;SDS011;50681;53.334;-6.536;2023-08-17T09:14:56;11.00;;;4.05;;
64353;SDS011;50681;53.334;-6.536;2023-08-17T09:17:23;13.88;;;3.50;;
64353;SDS011;50681;53.334;-6.536;2023-08-17T09:19:49;7.57;;;2.53;;
64353;SDS011;50681;53.334;-6.536;2023-08-17T09:22:21;10.70;;;2.35;;
64353;SDS011;50681;53.334;-6.536;2023-08-17T09:24:48;4.45;;;2.05;;
64353;SDS011;50681;53.334;-6.536;2023-08-17T09:27:13;8.63;;;1.98;;
64353;SDS011;50681;53.334;-6.536;2023-08-17T09:29:45;6.30;;;2.13;;
64353;SDS011;50681;53.334;-6.536;2023-08-17T09:32:11;4.57;;;2.00;;
64353;SDS011;50681;53.334;-6.536;2023-08-17T09:34:41;8.20;;;2.00;;
64353;SDS011;50681;53.334;-6.536;2023-08-17T09:37:07;8.38;;;1.92;;
64353;SDS011;50681;53.334;-6.536;2023-08-17T09:39:33;6.60;;;2.47;;
64353;SDS011;50681;53.334;-6.536;2023-08-17T09:42:01;8.38;;;2.38;;
64353;SDS011;50681;53.334;-6.536;2023-08-17T09:44:27;5.25;;;1.77;;
64353;SDS011;50681;53.334;-6.536;2023-08-17T09:46:55;13.27;;;2.42;;
64353;SDS011;50681;53.334;-6.536;2023-08-17T09:49:23;8.70;;;1.83;;
64353;SDS011;50681;53.334;-6.536;2023-08-17T09:51:49;6.55;;;2.15;;
64353;SDS011;50681;53.334;-6.536;2023-08-17T09:54:21;5.55;;;2.25;;
64353;SDS011;50681;53.334;-6.536;2023-08-17T09:56:53;7.50;;;2.20;;
64353;SDS011;50681;53.334;-6.536;2023-08-17T09:59:19;11.80;;;2.03;;
64353;SDS011;50681;53.334;-6.536;2023-08-17T10:04:15;5.90;;;1.90;;
64353;SDS011;50681;53.334;-6.536;2023-08-17T10:06:47;10.70;;;1.92;;
64353;SDS011;50681;53.334;-6.536;2023-08-17T10:09:16;14.27;;;2.00;;
64353;SDS011;50681;53.334;-6.536;2023-08-17T10:11:44;7.03;;;2.13;;
64353;SDS011;50681;53.334;-6.536;2023-08-17T10:14:15;5.70;;;2.30;;
64353;SDS011;50681;53.334;-6.536;2023-08-17T10:16:49;9.15;;;2.67;;
64353;SDS011;50681;53.334;-6.536;2023-08-17T10:19:40;8.13;;;2.88;;
64353;SDS011;50681;53.334;-6.536;2023-08-17T10:22:18;9.90;;;2.90;;
64353;SDS011;50681;53.334;-6.536;2023-08-17T10:24:48;7.00;;;2.40;;
64353;SDS011;50681;53.334;-6.536;2023-08-17T10:27:15;4.03;;;1.90;;
64353;SDS011;50681;53.334;-6.536;2023-08-17T10:29:42;5.57;;;2.17;;
64353;SDS011;50681;53.334;-6.536;2023-08-17T10:32:08;8.02;;;2.38;;
64353;SDS011;50681;53.334;-6.536;2023-08-17T10:34:35;17.30;;;3.75;;
64353;SDS011;50681;53.334;-6.536;2023-08-17T10:37:01;9.98;;;3.50;;
64353;SDS011;50681;53.334;-6.536;2023-08-17T10:39:28;11.05;;;2.67;;
64353;SDS011;50681;53.334;-6.536;2023-08-17T10:41:54;13.15;;;3.03;;
64353;SDS011;50681;53.334;-6.536;2023-08-17T10:44:40;18.75;;;2.85;;
64353;SDS011;50681;53.334;-6.536;2023-08-17T10:49:51;8.07;;;2.47;;
64353;SDS011;50681;53.334;-6.536;2023-08-17T10:55:06;11.70;;;2.30;;
64353;SDS011;50681;53.334;-6.536;2023-08-17T11:03:04;11.68;;;2.80;;
64353;SDS011;50681;53.334;-6.536;2023-08-17T11:05:46;10.20;;;2.83;;
64353;SDS011;50681;53.334;-6.536;2023-08-17T11:08:27;12.68;;;2.75;;
64353;SDS011;50681;53.334;-6.536;2023-08-17T11:11:12;9.52;;;2.72;;
64353;SDS011;50681;53.334;-6.536;2023-08-17T11:13:39;7.88;;;2.30;;
64353;SDS011;50681;53.334;-6.536;2023-08-17T11:16:07;6.20;;;2.10;;
64353;SDS011;50681;53.334;-6.536;2023-08-17T11:18:34;8.50;;;1.92;;
64353;SDS011;50681;53.334;-6.536;2023-08-17T11:21:03;5.68;;;2.08;;
64353;SDS011;50681;53.334;-6.536;2023-08-17T11:23:30;7.50;;;2.33;;
64353;SDS011;50681;53.334;-6.536;2023-08-17T11:25:57;7.22;;;2.03;;
64353;SDS011;50681;53.334;-6.536;2023-08-17T11:28:24;6.32;;;1.98;;
64353;SDS011;50681;53.334;-6.536;2023-08-17T11:30:56;8.02;;;2.13;;
64353;SDS011;50681;53.334;-6.536;2023-08-17T11:33:25;12.45;;;1.70;;
64353;SDS011;50681;53.334;-6.536;2023-08-17T11:35:57;13.27;;;2.40;;
64353;SDS011;50681;53.334;-6.536;2023-08-17T11:38:31;7.40;;;1.70;;
64353;SDS011;50681;53.334;-6.536;2023-08-17T11:41:06;3.83;;;2.05;;
64353;SDS011;50681;53.334;-6.536;2023-08-17T11:43:35;7.47;;;1.83;;
64353;SDS011;50681;53.334;-6.536;2023-08-17T11:48:27;9.07;;;2.17;;
64353;SDS011;50681;53.334;-6.536;2023-08-17T11:50:53;5.30;;;1.58;;
64353;SDS011;50681;53.334;-6.536;2023-08-17T11:53:20;7.95;;;1.88;;
64353;SDS011;50681;53.334;-6.536;2023-08-17T11:55:46;11.30;;;2.13;;
64353;SDS011;50681;53.334;-6.536;2023-08-17T11:58:12;16.45;;;2.20;;
64353;SDS011;50681;53.334;-6.536;2023-08-17T12:00:41;3.03;;;1.70;;
64353;SDS011;50681;53.334;-6.536;2023-08-17T12:03:12;14.27;;;2.08;;
64353;SDS011;50681;53.334;-6.536;2023-08-17T12:05:38;7.13;;;2.00;;
64353;SDS011;50681;53.334;-6.536;2023-08-17T12:08:04;10.40;;;2.28;;
64353;SDS011;50681;53.334;-6.536;2023-08-17T12:10:33;5.88;;;2.13;;
64353;SDS011;50681;53.334;-6.536;2023-08-17T12:12:59;6.70;;;2.00;;
64353;SDS011;50681;53.334;-6.536;2023-08-17T12:15:31;7.43;;;2.13;;
64353;SDS011;50681;53.334;-6.536;2023-08-17T12:17:58;10.57;;;2.20;;
64353;SDS011;50681;53.334;-6.536;2023-08-17T12:20:25;8.88;;;2.25;;
64353;SDS011;50681;53.334;-6.536;2023-08-17T12:22:51;8.45;;;2.75;;
64353;SDS011;50681;53.334;-6.536;2023-08-17T12:25:17;9.02;;;2.28;;
64353;SDS011;50681;53.334;-6.536;2023-08-17T12:27:46;9.07;;;2.47;;
64353;SDS011;50681;53.334;-6.536;2023-08-17T12:30:13;5.15;;;2.05;;
64353;SDS011;50681;53.334;-6.536;2023-08-17T12:32:48;6.70;;;1.83;;
64353;SDS011;50681;53.334;-6.536;2023-08-17T12:35:13;10.05;;;2.10;;
64353;SDS011;50681;53.334;-6.536;2023-08-17T12:37:39;8.88;;;2.20;;
64353;SDS011;50681;53.334;-6.536;2023-08-17T12:40:04;8.00;;;2.20;;
64353;SDS011;50681;53.334;-6.536;2023-08-17T12:42:30;17.48;;;2.83;;
64353;SDS011;50681;53.334;-6.536;2023-08-17T12:44:56;5.55;;;2.28;;
64353;SDS011;50681;53.334;-6.536;2023-08-17T12:47:22;13.48;;;2.60;;
64353;SDS011;50681;53.334;-6.536;2023-08-17T12:49:47;8.35;;;2.45;;
64353;SDS011;50681;53.334;-6.536;2023-08-17T12:52:12;5.63;;;2.35;;
64353;SDS011;50681;53.334;-6.536;2023-08-17T12:54:38;6.32;;;2.15;;
64353;SDS011;50681;53.334;-6.536;2023-08-17T12:57:03;8.13;;;1.98;;
64353;SDS011;50681;53.334;-6.536;2023-08-17T12:59:29;7.32;;;2.05;;
64353;SDS011;50681;53.334;-6.536;2023-08-17T13:01:54;6.75;;;2.33;;
64353;SDS011;50681;53.334;-6.536;2023-08-17T13:04:20;5.18;;;1.88;;
64353;SDS011;50681;53.334;-6.536;2023-08-17T13:06:45;6.63;;;2.30;;
64353;SDS011;50681;53.334;-6.536;2023-08-17T13:09:12;7.80;;;2.40;;
64353;SDS011;50681;53.334;-6.536;2023-08-17T13:11:39;9.00;;;2.40;;
64353;SDS011;50681;53.334;-6.536;2023-08-17T13:14:05;7.55;;;2.20;;
64353;SDS011;50681;53.334;-6.536;2023-08-17T13:16:30;8.85;;;2.53;;
64353;SDS011;50681;53.334;-6.536;2023-08-17T13:18:55;11.70;;;2.38;;
64353;SDS011;50681;53.334;-6.536;2023-08-17T13:21:21;6.13;;;2.40;;
64353;SDS011;50681;53.334;-6.536;2023-08-17T13:23:46;8.05;;;2.47;;
64353;SDS011;50681;53.334;-6.536;2023-08-17T13:26:12;13.68;;;2.92;;
64353;SDS011;50681;53.334;-6.536;2023-08-17T13:28:38;13.55;;;2.78;;
64353;SDS011;50681;53.334;-6.536;2023-08-17T13:31:04;10.73;;;3.17;;
64353;SDS011;50681;53.334;-6.536;2023-08-17T13:33:29;10.32;;;2.63;;
64353;SDS011;50681;53.334;-6.536;2023-08-17T13:35:55;10.85;;;3.00;;
64353;SDS011;50681;53.334;-6.536;2023-08-17T13:38:20;8.88;;;2.65;;
64353;SDS011;50681;53.334;-6.536;2023-08-17T13:40:45;12.15;;;2.80;;
64353;SDS011;50681;53.334;-6.536;2023-08-17T13:43:11;8.90;;;2.85;;
64353;SDS011;50681;53.334;-6.536;2023-08-17T13:45:40;8.35;;;2.80;;
64353;SDS011;50681;53.334;-6.536;2023-08-17T13:48:06;8.25;;;2.55;;
64353;SDS011;50681;53.334;-6.536;2023-08-17T13:50:32;6.32;;;2.60;;
64353;SDS011;50681;53.334;-6.536;2023-08-17T13:52:58;8.45;;;2.80;;
64353;SDS011;50681;53.334;-6.536;2023-08-17T13:55:25;13.02;;;2.83;;
64353;SDS011;50681;53.334;-6.536;2023-08-17T13:57:51;9.82;;;2.33;;
64353;SDS011;50681;53.334;-6.536;2023-08-17T14:00:18;8.00;;;2.75;;
64353;SDS011;50681;53.334;-6.536;2023-08-17T14:02:43;7.95;;;2.97;;
64353;SDS011;50681;53.334;-6.536;2023-08-17T14:05:09;10.75;;;2.83;;
64353;SDS011;50681;53.334;-6.536;2023-08-17T14:07:34;11.48;;;3.17;;
64353;SDS011;50681;53.334;-6.536;2023-08-17T14:09:59;13.93;;;2.67;;
64353;SDS011;50681;53.334;-6.536;2023-08-17T14:12:25;9.40;;;2.80;;
64353;SDS011;50681;53.334;-6.536;2023-08-17T14:14:50;13.60;;;3.03;;
64353;SDS011;50681;53.334;-6.536;2023-08-17T14:17:16;6.93;;;2.65;;
64353;SDS011;50681;53.334;-6.536;2023-08-17T14:19:41;6.50;;;2.50;;
64353;SDS011;50681;53.334;-6.536;2023-08-17T14:22:08;8.95;;;2.65;;
64353;SDS011;50681;53.334;-6.536;2023-08-17T14:24:33;6.10;;;2.20;;
64353;SDS011;50681;53.334;-6.536;2023-08-17T14:26:59;7.07;;;2.60;;
64353;SDS011;50681;53.334;-6.536;2023-08-17T14:29:24;6.88;;;2.42;;
64353;SDS011;50681;53.334;-6.536;2023-08-17T14:31:51;8.88;;;2.63;;
64353;SDS011;50681;53.334;-6.536;2023-08-17T14:34:17;7.72;;;2.58;;
64353;SDS011;50681;53.334;-6.536;2023-08-17T14:36:42;9.50;;;2.70;;
64353;SDS011;50681;53.334;-6.536;2023-08-17T14:39:07;6.75;;;2.60;;
64353;SDS011;50681;53.334;-6.536;2023-08-17T14:41:33;12.13;;;2.47;;
64353;SDS011;50681;53.334;-6.536;2023-08-17T14:43:59;7.40;;;2.50;;
64353;SDS011;50681;53.334;-6.536;2023-08-17T14:48:51;6.68;;;2.38;;
64353;SDS011;50681;53.334;-6.536;2023-08-17T14:51:16;7.88;;;2.88;;
64353;SDS011;50681;53.334;-6.536;2023-08-17T14:53:41;9.23;;;2.40;;
64353;SDS011;50681;53.334;-6.536;2023-08-17T14:56:07;15.57;;;2.65;;
64353;SDS011;50681;53.334;-6.536;2023-08-17T14:58:32;6.15;;;2.30;;
64353;SDS011;50681;53.334;-6.536;2023-08-17T15:00:58;8.50;;;2.47;;